Ana Sayfa
METAR-TAF:

METAR-TAF

Havaalanları :

Fort Stockton-Pecos County Airport

Fort Stockton, Teksas, Amerika Birleşik Devletleri

Enlem: 30-54-43N, Boylam: 102-55-00W, yükseklik: 917 m

Güncel hava durumu gözlemi

Rapor saat 15:53 UTC de 50 dakika önce yapıldı.
Rüzgar güneybatıdan 10 kt ve 20 kt'a kadar ani rüzgarlar
Sıcaklık 33°C
Nem 32%
Basınç 1015 hPa
Görüş mesafesi: 16.1 km
Açık gökyüzü

METAR: KFST 191553Z AUTO 22010G20KT 10SM CLR 33/14 A2998 RMK AO2 SLP094 T03280139

Saat: 11:43 (16:43 UTC)

Tahmin

Rapor saat 11:20 UTC de 5 saat ve 23 dakika önce yapıldı.
Ayın 19'si saat 12 UTC'den ayın 20'si saat 12 UTC'ye kadar geçerli Tahmin
Rüzgar güneydan 11 kt
Görüş mesafesi: 10 km
Açık gökyüzü
Ayın 19'si saat 2200 UTC'den
Rüzgar güneydoğudan 17 kt ve 27 kt'a kadar ani rüzgarlar
Görüş mesafesi: 10 km
12000 ft yükseklikte az bulutlu

TAF: KFST 191120Z 1912/2012 17011KT P6SM SKC FM192200 14017G27KT P6SM FEW120

4.000'den fazla havaalanı için hava durumu gözlemleri ve tahminleri (METAR ve TAF raporları).

Kullanılabilir istasyonlar harita üzerinde sarı ve kırmızı noktalarla gösterilir.

İstasyonun adını görmek için fareyi noktanın üzerinde gezdirin.

Sonrasında hava gözlem ve tahminlerini görmek için tıklayın.

Haritayı değiştirmek için: yaklaştırmak için siyah artı işaretli yeşil düğmeye ve uzaklaştırmak için de eksi işaretli düğmeye hızla tıklayın; bitişik haritalar için yeşil okları kullanın.


METAR-TAF: